RYR50XY LFMU-EGGW
Flight info
| Callsign | RYR50XY |
|---|---|
| Flight time | 2h 0m |
| Altitude | 38000 |
| Route | FJR DCT NG DCT MOLEN DCT MTL DCT ETREK DCT MADOT DCT MOPEM DCT CACHI DCT AVLON DCT OKRIX DCT BRY DCT CLM DCT KOPOR DCT PIREG DCT SOSUN DCT SUBIP UM733 UNDUG |
| Aircraft | B738/M-SDE3FGILRWY/SB1 |
Departure
| Time | 2026-04-29 19:28 |
|---|---|
| Airport | Béziers Vias airport (LFMU) |
Arrival
| Time | 2026-04-29 21:28 |
|---|---|
| Airport | London Luton Airport (EGGW) |
| Time | Latitude | Longitude | Altitude | Speed | Heading |
|---|---|---|---|---|---|
| 2026-04-29 19:05 | 43.32138 | 3.35323 | 58 ft | 0 kts | 308° |
| 2026-04-29 19:25 | 43.32192 | 3.35319 | 58 ft | 17 kts | 7° |
| 2026-04-29 19:25 | 43.32317 | 3.35323 | 58 ft | 22 kts | 334° |
| 2026-04-29 19:25 | 43.32355 | 3.35103 | 57 ft | 25 kts | 272° |
| 2026-04-29 19:26 | 43.32366 | 3.34864 | 57 ft | 24 kts | 275° |
| 2026-04-29 19:26 | 43.32379 | 3.34629 | 57 ft | 24 kts | 274° |
| 2026-04-29 19:26 | 43.32394 | 3.34405 | 58 ft | 23 kts | 275° |
| 2026-04-29 19:26 | 43.32388 | 3.34244 | 58 ft | 14 kts | 245° |
| 2026-04-29 19:27 | 43.32404 | 3.34225 | 58 ft | 7 kts | 92° |
| 2026-04-29 19:27 | 43.32400 | 3.34295 | 58 ft | 8 kts | 94° |
| 2026-04-29 19:27 | 43.32392 | 3.34465 | 58 ft | 31 kts | 93° |
| 2026-04-29 19:27 | 43.32358 | 3.35070 | 57 ft | 94 kts | 93° |
| 2026-04-29 19:28 | 43.32297 | 3.36180 | 56 ft | 147 kts | 94° |
| 2026-04-29 19:28 | 43.32209 | 3.37724 | 478 ft | 169 kts | 94° |
| 2026-04-29 19:28 | 43.32087 | 3.39310 | 1348 ft | 168 kts | 96° |
| 2026-04-29 19:28 | 43.32267 | 3.40901 | 1967 ft | 180 kts | 61° |
| 2026-04-29 19:29 | 43.33163 | 3.42187 | 2495 ft | 195 kts | 44° |
| 2026-04-29 19:29 | 43.34195 | 3.43524 | 2979 ft | 211 kts | 50° |
| 2026-04-29 19:29 | 43.35187 | 3.45058 | 3499 ft | 225 kts | 53° |
| 2026-04-29 19:29 | 43.36234 | 3.46761 | 4029 ft | 239 kts | 53° |
| 2026-04-29 19:30 | 43.37325 | 3.48517 | 4664 ft | 250 kts | 52° |
| 2026-04-29 19:30 | 43.38483 | 3.50359 | 5329 ft | 260 kts | 52° |
| 2026-04-29 19:30 | 43.39702 | 3.52291 | 5877 ft | 275 kts | 52° |
| 2026-04-29 19:30 | 43.40958 | 3.54280 | 6578 ft | 283 kts | 51° |
| 2026-04-29 19:31 | 43.42247 | 3.56322 | 7362 ft | 287 kts | 51° |
| 2026-04-29 19:31 | 43.43545 | 3.58404 | 8145 ft | 290 kts | 53° |
| 2026-04-29 19:31 | 43.44676 | 3.60716 | 8923 ft | 292 kts | 62° |
| 2026-04-29 19:31 | 43.45602 | 3.63174 | 9638 ft | 296 kts | 65° |
| 2026-04-29 19:32 | 43.46496 | 3.65775 | 10347 ft | 302 kts | 66° |
| 2026-04-29 19:32 | 43.47406 | 3.68430 | 10800 ft | 317 kts | 66° |
| 2026-04-29 19:32 | 43.48383 | 3.71214 | 11262 ft | 331 kts | 65° |
| 2026-04-29 19:32 | 43.49421 | 3.74120 | 11708 ft | 346 kts | 64° |
| 2026-04-29 19:33 | 43.50497 | 3.77102 | 12430 ft | 350 kts | 64° |
| 2026-04-29 19:33 | 43.51588 | 3.80112 | 13211 ft | 354 kts | 64° |
| 2026-04-29 19:33 | 43.52689 | 3.83154 | 13997 ft | 357 kts | 64° |
| 2026-04-29 19:33 | 43.53795 | 3.86211 | 14755 ft | 362 kts | 64° |
| 2026-04-29 19:34 | 43.55041 | 3.89265 | 15492 ft | 366 kts | 53° |
| 2026-04-29 19:34 | 43.56903 | 3.91592 | 16239 ft | 368 kts | 30° |
| 2026-04-29 19:34 | 43.59264 | 3.92966 | 16976 ft | 371 kts | 18° |
| 2026-04-29 19:34 | 43.61731 | 3.93985 | 17633 ft | 376 kts | 16° |
| 2026-04-29 19:35 | 43.64269 | 3.94964 | 18354 ft | 380 kts | 15° |
| 2026-04-29 19:35 | 43.66794 | 3.95955 | 19020 ft | 384 kts | 16° |
| 2026-04-29 19:35 | 43.69379 | 3.97011 | 19723 ft | 387 kts | 17° |
| 2026-04-29 19:35 | 43.71946 | 3.98095 | 20380 ft | 391 kts | 17° |
| 2026-04-29 19:36 | 43.74581 | 3.99231 | 21009 ft | 395 kts | 17° |
| 2026-04-29 19:36 | 43.77209 | 4.00375 | 21630 ft | 398 kts | 17° |
| 2026-04-29 19:36 | 43.79869 | 4.01539 | 22286 ft | 400 kts | 17° |
| 2026-04-29 19:36 | 43.82525 | 4.02703 | 22872 ft | 404 kts | 17° |
| 2026-04-29 19:37 | 43.85191 | 4.03874 | 23445 ft | 407 kts | 17° |
| 2026-04-29 19:37 | 43.87013 | 4.04674 | 23820 ft | 410 kts | 17° |
| 2026-04-29 19:37 | 43.90640 | 4.06269 | 24551 ft | 414 kts | 17° |
| 2026-04-29 19:37 | 43.93369 | 4.07469 | 25097 ft | 417 kts | 17° |
| 2026-04-29 19:38 | 43.96166 | 4.08699 | 25650 ft | 420 kts | 17° |
| 2026-04-29 19:38 | 43.98960 | 4.09929 | 26148 ft | 424 kts | 17° |
| 2026-04-29 19:38 | 44.01749 | 4.11158 | 26678 ft | 426 kts | 17° |
| 2026-04-29 19:38 | 44.04581 | 4.12407 | 27136 ft | 430 kts | 17° |
| 2026-04-29 19:39 | 44.07456 | 4.13676 | 27635 ft | 433 kts | 17° |
| 2026-04-29 19:39 | 44.10322 | 4.14943 | 28087 ft | 436 kts | 17° |
| 2026-04-29 19:39 | 44.13243 | 4.16236 | 28527 ft | 440 kts | 17° |
| 2026-04-29 19:39 | 44.16151 | 4.17525 | 28992 ft | 442 kts | 17° |
| 2026-04-29 19:40 | 44.19117 | 4.18840 | 29451 ft | 445 kts | 17° |
| 2026-04-29 19:40 | 44.22068 | 4.20150 | 29903 ft | 448 kts | 17° |
| 2026-04-29 19:40 | 44.25031 | 4.21466 | 30336 ft | 450 kts | 17° |
| 2026-04-29 19:40 | 44.28012 | 4.22792 | 30942 ft | 448 kts | 17° |
| 2026-04-29 19:41 | 44.30966 | 4.24108 | 31536 ft | 447 kts | 16° |
| 2026-04-29 19:41 | 44.33908 | 4.25420 | 31976 ft | 448 kts | 16° |
| 2026-04-29 19:41 | 44.36914 | 4.26761 | 32014 ft | 453 kts | 16° |
| 2026-04-29 19:42 | 44.42868 | 4.29423 | 32018 ft | 447 kts | 16° |
| 2026-04-29 19:42 | 44.48806 | 4.32084 | 32020 ft | 447 kts | 16° |
| 2026-04-29 19:43 | 44.54718 | 4.34738 | 32022 ft | 446 kts | 16° |
| 2026-04-29 19:43 | 44.60654 | 4.37409 | 32031 ft | 445 kts | 16° |
| 2026-04-29 19:44 | 44.66549 | 4.40066 | 32314 ft | 450 kts | 16° |
| 2026-04-29 19:44 | 44.69513 | 4.41405 | 33013 ft | 444 kts | 15° |
| 2026-04-29 19:44 | 44.72434 | 4.42727 | 33541 ft | 443 kts | 15° |
| 2026-04-29 19:44 | 44.75370 | 4.44055 | 34001 ft | 443 kts | 15° |
| 2026-04-29 19:45 | 44.78280 | 4.45373 | 34448 ft | 442 kts | 15° |
| 2026-04-29 19:45 | 44.81186 | 4.46692 | 34881 ft | 441 kts | 15° |
| 2026-04-29 19:45 | 44.84106 | 4.48017 | 35330 ft | 439 kts | 15° |
| 2026-04-29 19:45 | 44.87001 | 4.49332 | 35710 ft | 438 kts | 15° |
| 2026-04-29 19:46 | 44.89897 | 4.50649 | 36078 ft | 437 kts | 15° |
| 2026-04-29 19:46 | 44.92768 | 4.51956 | 36427 ft | 436 kts | 15° |
| 2026-04-29 19:46 | 44.95658 | 4.53274 | 36848 ft | 434 kts | 15° |
| 2026-04-29 19:46 | 44.98512 | 4.54577 | 37293 ft | 433 kts | 15° |
| 2026-04-29 19:47 | 45.01379 | 4.55887 | 37663 ft | 433 kts | 15° |
| 2026-04-29 19:47 | 45.04252 | 4.57201 | 38039 ft | 432 kts | 15° |
| 2026-04-29 19:47 | 45.07120 | 4.58513 | 38027 ft | 434 kts | 15° |
| 2026-04-29 19:48 | 45.12838 | 4.61134 | 38035 ft | 430 kts | 15° |
| 2026-04-29 19:48 | 45.18630 | 4.63161 | 38034 ft | 426 kts | 2° |
| 2026-04-29 19:49 | 45.24484 | 4.62830 | 38039 ft | 421 kts | 349° |
| 2026-04-29 19:49 | 45.30268 | 4.61514 | 38040 ft | 421 kts | 347° |
| 2026-04-29 19:50 | 45.36023 | 4.60069 | 38037 ft | 420 kts | 347° |
| 2026-04-29 19:50 | 45.41754 | 4.58675 | 38028 ft | 419 kts | 347° |
| 2026-04-29 19:51 | 45.47525 | 4.57314 | 38021 ft | 421 kts | 347° |
| 2026-04-29 19:51 | 45.53287 | 4.55975 | 38013 ft | 419 kts | 347° |
| 2026-04-29 19:52 | 45.59074 | 4.54638 | 38014 ft | 419 kts | 347° |
| 2026-04-29 19:52 | 45.64826 | 4.53306 | 38010 ft | 419 kts | 347° |
| 2026-04-29 19:53 | 45.70577 | 4.51973 | 38014 ft | 419 kts | 347° |
| 2026-04-29 19:53 | 45.76328 | 4.50638 | 38017 ft | 418 kts | 347° |
| 2026-04-29 19:54 | 45.84913 | 4.48639 | 38018 ft | 417 kts | 347° |
| 2026-04-29 19:54 | 45.90623 | 4.47306 | 38024 ft | 416 kts | 347° |
| 2026-04-29 19:55 | 45.96386 | 4.45957 | 38028 ft | 417 kts | 347° |
| 2026-04-29 19:55 | 46.02095 | 4.44619 | 38026 ft | 415 kts | 347° |
| 2026-04-29 19:56 | 46.07796 | 4.43281 | 38020 ft | 416 kts | 347° |
| 2026-04-29 19:56 | 46.13546 | 4.41926 | 38033 ft | 416 kts | 347° |
| 2026-04-29 19:57 | 46.18291 | 4.40806 | 38028 ft | 416 kts | 347° |
| 2026-04-29 19:57 | 46.24940 | 4.39236 | 38030 ft | 415 kts | 347° |
| 2026-04-29 19:58 | 46.30595 | 4.37822 | 38025 ft | 415 kts | 345° |
| 2026-04-29 19:58 | 46.36204 | 4.35910 | 38020 ft | 413 kts | 342° |
| 2026-04-29 19:59 | 46.41786 | 4.33847 | 38031 ft | 412 kts | 342° |
| 2026-04-29 19:59 | 46.47335 | 4.31826 | 38029 ft | 412 kts | 343° |
| 2026-04-29 20:00 | 46.52905 | 4.29834 | 38030 ft | 412 kts | 343° |
| 2026-04-29 20:00 | 46.58459 | 4.27864 | 38029 ft | 412 kts | 343° |
| 2026-04-29 20:01 | 46.64034 | 4.25891 | 38031 ft | 411 kts | 343° |
| 2026-04-29 20:01 | 46.69603 | 4.23918 | 38032 ft | 410 kts | 343° |
| 2026-04-29 20:02 | 46.75138 | 4.21954 | 38033 ft | 412 kts | 343° |
| 2026-04-29 20:02 | 46.79793 | 4.20298 | 38033 ft | 411 kts | 343° |
| 2026-04-29 20:03 | 46.86249 | 4.17997 | 38033 ft | 411 kts | 343° |
| 2026-04-29 20:03 | 46.91763 | 4.16027 | 38041 ft | 411 kts | 343° |
| 2026-04-29 20:04 | 46.97319 | 4.14039 | 38045 ft | 410 kts | 343° |
| 2026-04-29 20:04 | 47.02856 | 4.12051 | 38052 ft | 409 kts | 343° |
| 2026-04-29 20:05 | 47.08290 | 4.09828 | 38056 ft | 406 kts | 338° |
| 2026-04-29 20:05 | 47.13526 | 4.06856 | 38056 ft | 405 kts | 335° |
| 2026-04-29 20:06 | 47.18747 | 4.03674 | 38068 ft | 404 kts | 335° |
| 2026-04-29 20:06 | 47.23934 | 4.00530 | 38067 ft | 405 kts | 335° |
| 2026-04-29 20:07 | 47.29131 | 3.97415 | 38058 ft | 404 kts | 335° |
| 2026-04-29 20:07 | 47.34347 | 3.94302 | 38061 ft | 404 kts | 335° |
| 2026-04-29 20:08 | 47.38693 | 3.91711 | 38058 ft | 405 kts | 336° |
| 2026-04-29 20:08 | 47.44778 | 3.88078 | 38055 ft | 404 kts | 336° |
| 2026-04-29 20:09 | 47.49941 | 3.84987 | 38061 ft | 403 kts | 336° |
| 2026-04-29 20:09 | 47.55153 | 3.81861 | 38058 ft | 405 kts | 336° |
| 2026-04-29 20:10 | 47.60352 | 3.78736 | 38070 ft | 404 kts | 336° |
| 2026-04-29 20:10 | 47.65539 | 3.75614 | 38071 ft | 403 kts | 336° |
| 2026-04-29 20:11 | 47.70745 | 3.72474 | 38071 ft | 403 kts | 336° |
| 2026-04-29 20:11 | 47.75918 | 3.69346 | 38073 ft | 401 kts | 336° |
| 2026-04-29 20:12 | 47.81070 | 3.66225 | 38076 ft | 402 kts | 336° |
| 2026-04-29 20:12 | 47.86257 | 3.63076 | 38073 ft | 403 kts | 336° |
| 2026-04-29 20:13 | 47.91446 | 3.59918 | 38080 ft | 402 kts | 337° |
| 2026-04-29 20:13 | 47.96617 | 3.56766 | 38082 ft | 402 kts | 336° |
| 2026-04-29 20:14 | 48.01775 | 3.53606 | 38074 ft | 403 kts | 336° |
| 2026-04-29 20:14 | 48.06993 | 3.50396 | 38081 ft | 404 kts | 337° |
| 2026-04-29 20:15 | 48.12164 | 3.47207 | 38090 ft | 404 kts | 337° |
| 2026-04-29 20:15 | 48.17385 | 3.43982 | 38091 ft | 405 kts | 337° |
| 2026-04-29 20:16 | 48.22562 | 3.40778 | 38099 ft | 403 kts | 337° |
| 2026-04-29 20:16 | 48.27750 | 3.37561 | 38094 ft | 404 kts | 337° |
| 2026-04-29 20:17 | 48.32938 | 3.34335 | 38098 ft | 404 kts | 336° |
| 2026-04-29 20:17 | 48.38113 | 3.31110 | 38096 ft | 405 kts | 336° |
| 2026-04-29 20:18 | 48.43329 | 3.27842 | 38109 ft | 405 kts | 336° |
| 2026-04-29 20:18 | 48.48510 | 3.24542 | 38121 ft | 405 kts | 336° |
| 2026-04-29 20:19 | 48.53654 | 3.21247 | 38119 ft | 404 kts | 336° |
| 2026-04-29 20:19 | 48.58817 | 3.17934 | 38121 ft | 407 kts | 336° |
| 2026-04-29 20:20 | 48.63989 | 3.14613 | 38133 ft | 404 kts | 336° |
| 2026-04-29 20:20 | 48.69173 | 3.11280 | 38138 ft | 406 kts | 337° |
| 2026-04-29 20:21 | 48.74363 | 3.07937 | 38143 ft | 406 kts | 337° |
| 2026-04-29 20:21 | 48.79548 | 3.04589 | 38132 ft | 404 kts | 336° |
| 2026-04-29 20:22 | 48.84705 | 3.01186 | 38136 ft | 405 kts | 334° |
| 2026-04-29 20:22 | 48.89648 | 2.97142 | 38148 ft | 405 kts | 330° |
| 2026-04-29 20:23 | 48.94505 | 2.92799 | 38145 ft | 406 kts | 329° |
| 2026-04-29 20:23 | 48.99359 | 2.88455 | 38148 ft | 407 kts | 330° |
| 2026-04-29 20:24 | 49.04231 | 2.84133 | 38150 ft | 407 kts | 330° |
| 2026-04-29 20:24 | 49.09159 | 2.79780 | 38150 ft | 408 kts | 330° |
| 2026-04-29 20:25 | 49.14062 | 2.75450 | 38155 ft | 409 kts | 330° |
| 2026-04-29 20:25 | 49.19007 | 2.71079 | 38149 ft | 410 kts | 330° |
| 2026-04-29 20:26 | 49.23942 | 2.66705 | 38150 ft | 410 kts | 331° |
| 2026-04-29 20:26 | 49.28848 | 2.62348 | 38154 ft | 410 kts | 331° |
| 2026-04-29 20:27 | 49.32971 | 2.58677 | 38154 ft | 413 kts | 331° |
| 2026-04-29 20:27 | 49.38723 | 2.53542 | 38160 ft | 412 kts | 331° |
| 2026-04-29 20:28 | 49.43698 | 2.49093 | 38161 ft | 417 kts | 331° |
| 2026-04-29 20:28 | 49.48694 | 2.44597 | 38161 ft | 416 kts | 330° |
| 2026-04-29 20:29 | 49.53403 | 2.39440 | 38158 ft | 417 kts | 322° |
| 2026-04-29 20:29 | 49.57789 | 2.33581 | 38157 ft | 419 kts | 319° |
| 2026-04-29 20:30 | 49.62120 | 2.27526 | 38157 ft | 421 kts | 319° |
| 2026-04-29 20:30 | 49.66310 | 2.21222 | 38168 ft | 424 kts | 315° |
| 2026-04-29 20:31 | 49.70370 | 2.14610 | 38166 ft | 423 kts | 314° |
| 2026-04-29 20:31 | 49.74387 | 2.08018 | 38166 ft | 424 kts | 315° |
| 2026-04-29 20:32 | 49.78447 | 2.01398 | 38157 ft | 423 kts | 315° |
| 2026-04-29 20:32 | 49.82505 | 1.94807 | 38164 ft | 426 kts | 315° |
| 2026-04-29 20:33 | 49.86595 | 1.88162 | 38163 ft | 425 kts | 315° |
| 2026-04-29 20:33 | 49.90672 | 1.81527 | 38161 ft | 427 kts | 315° |
| 2026-04-29 20:34 | 49.94738 | 1.74896 | 38164 ft | 426 kts | 315° |
| 2026-04-29 20:34 | 49.98812 | 1.68234 | 38167 ft | 425 kts | 315° |
| 2026-04-29 20:35 | 50.02859 | 1.61597 | 38168 ft | 425 kts | 315° |
| 2026-04-29 20:35 | 50.06918 | 1.54923 | 38166 ft | 426 kts | 315° |
| 2026-04-29 20:36 | 50.10990 | 1.48212 | 38176 ft | 427 kts | 315° |
| 2026-04-29 20:36 | 50.15079 | 1.41456 | 38173 ft | 428 kts | 315° |
| 2026-04-29 20:37 | 50.19155 | 1.34704 | 38185 ft | 427 kts | 314° |
| 2026-04-29 20:37 | 50.23197 | 1.27987 | 37859 ft | 419 kts | 314° |
| 2026-04-29 20:38 | 50.25179 | 1.24685 | 37431 ft | 413 kts | 314° |
| 2026-04-29 20:38 | 50.27123 | 1.21442 | 36924 ft | 410 kts | 314° |
| 2026-04-29 20:38 | 50.29052 | 1.18220 | 36429 ft | 407 kts | 314° |
| 2026-04-29 20:38 | 50.30976 | 1.15004 | 35923 ft | 406 kts | 314° |
| 2026-04-29 20:39 | 50.32881 | 1.11817 | 35539 ft | 402 kts | 314° |
| 2026-04-29 20:39 | 50.34778 | 1.08639 | 35113 ft | 399 kts | 314° |
| 2026-04-29 20:39 | 50.36660 | 1.05482 | 34682 ft | 396 kts | 314° |
| 2026-04-29 20:39 | 50.38511 | 1.02372 | 34246 ft | 393 kts | 314° |
| 2026-04-29 20:40 | 50.40386 | 0.99221 | 33815 ft | 394 kts | 314° |
| 2026-04-29 20:40 | 50.42262 | 0.96066 | 33399 ft | 411 kts | 314° |
| 2026-04-29 20:40 | 50.44265 | 0.92697 | 32929 ft | 424 kts | 314° |
| 2026-04-29 20:40 | 50.46247 | 0.89354 | 32471 ft | 422 kts | 314° |
| 2026-04-29 20:41 | 50.48238 | 0.85987 | 32014 ft | 418 kts | 314° |
| 2026-04-29 20:41 | 50.50182 | 0.82695 | 31566 ft | 414 kts | 314° |
| 2026-04-29 20:41 | 50.52138 | 0.79378 | 31108 ft | 410 kts | 314° |
| 2026-04-29 20:41 | 50.54066 | 0.76133 | 30646 ft | 406 kts | 316° |
| 2026-04-29 20:42 | 50.56052 | 0.73091 | 30184 ft | 402 kts | 320° |
| 2026-04-29 20:42 | 50.58152 | 0.70177 | 29740 ft | 397 kts | 322° |
| 2026-04-29 20:42 | 50.60235 | 0.67416 | 29296 ft | 393 kts | 323° |
| 2026-04-29 20:42 | 50.62317 | 0.64700 | 28869 ft | 389 kts | 323° |
| 2026-04-29 20:43 | 50.64399 | 0.61981 | 28434 ft | 385 kts | 323° |
| 2026-04-29 20:43 | 50.66436 | 0.59307 | 28005 ft | 382 kts | 322° |
| 2026-04-29 20:43 | 50.68447 | 0.56649 | 27575 ft | 378 kts | 322° |
| 2026-04-29 20:43 | 50.70456 | 0.53980 | 27138 ft | 375 kts | 322° |
| 2026-04-29 20:44 | 50.72412 | 0.51367 | 26716 ft | 371 kts | 322° |
| 2026-04-29 20:44 | 50.74375 | 0.48736 | 26285 ft | 368 kts | 322° |
| 2026-04-29 20:44 | 50.76295 | 0.46155 | 25860 ft | 365 kts | 322° |
| 2026-04-29 20:44 | 50.78217 | 0.43565 | 25442 ft | 362 kts | 322° |
| 2026-04-29 20:45 | 50.80123 | 0.40992 | 25034 ft | 359 kts | 322° |
| 2026-04-29 20:45 | 50.82012 | 0.38440 | 24615 ft | 356 kts | 322° |
| 2026-04-29 20:45 | 50.83885 | 0.35906 | 24200 ft | 354 kts | 322° |
| 2026-04-29 20:45 | 50.85743 | 0.33389 | 23790 ft | 351 kts | 321° |
| 2026-04-29 20:46 | 50.87593 | 0.30879 | 23387 ft | 349 kts | 321° |
| 2026-04-29 20:46 | 50.89439 | 0.28372 | 22975 ft | 346 kts | 321° |
| 2026-04-29 20:46 | 50.91244 | 0.25918 | 22572 ft | 344 kts | 321° |
| 2026-04-29 20:46 | 50.93040 | 0.23475 | 22170 ft | 342 kts | 321° |
| 2026-04-29 20:47 | 50.94853 | 0.21005 | 21756 ft | 340 kts | 321° |
| 2026-04-29 20:47 | 50.96634 | 0.18576 | 21362 ft | 342 kts | 321° |
| 2026-04-29 20:47 | 50.98467 | 0.16080 | 20951 ft | 357 kts | 321° |
| 2026-04-29 20:47 | 51.00381 | 0.13471 | 20509 ft | 360 kts | 321° |
| 2026-04-29 20:48 | 51.02269 | 0.10956 | 20225 ft | 352 kts | 324° |
| 2026-04-29 20:48 | 51.04202 | 0.08664 | 20230 ft | 350 kts | 327° |
| 2026-04-29 20:48 | 51.06218 | 0.06443 | 20227 ft | 354 kts | 328° |
| 2026-04-29 20:48 | 51.08256 | 0.04246 | 20230 ft | 354 kts | 329° |
| 2026-04-29 20:49 | 51.10272 | 0.02073 | 20233 ft | 353 kts | 328° |
| 2026-04-29 20:49 | 51.12309 | -0.00140 | 20235 ft | 353 kts | 328° |
| 2026-04-29 20:49 | 51.14330 | -0.02352 | 20234 ft | 353 kts | 328° |
| 2026-04-29 20:49 | 51.16362 | -0.04591 | 20235 ft | 353 kts | 328° |
| 2026-04-29 20:50 | 51.18373 | -0.06817 | 20232 ft | 353 kts | 328° |
| 2026-04-29 20:50 | 51.20365 | -0.09028 | 20235 ft | 353 kts | 328° |
| 2026-04-29 20:50 | 51.22191 | -0.11059 | 20230 ft | 354 kts | 328° |
| 2026-04-29 20:50 | 51.24260 | -0.13365 | 20229 ft | 354 kts | 328° |
| 2026-04-29 20:51 | 51.26272 | -0.15609 | 20235 ft | 353 kts | 328° |
| 2026-04-29 20:51 | 51.28308 | -0.17884 | 20239 ft | 353 kts | 328° |
| 2026-04-29 20:51 | 51.30314 | -0.20127 | 20233 ft | 354 kts | 328° |
| 2026-04-29 20:51 | 51.32312 | -0.22364 | 20242 ft | 355 kts | 328° |
| 2026-04-29 20:52 | 51.34277 | -0.24565 | 20241 ft | 354 kts | 328° |
| 2026-04-29 20:52 | 51.36312 | -0.26850 | 20233 ft | 354 kts | 328° |
| 2026-04-29 20:52 | 51.38339 | -0.29080 | 20235 ft | 354 kts | 330° |
| 2026-04-29 20:52 | 51.40510 | -0.30972 | 19992 ft | 352 kts | 342° |
| 2026-04-29 20:53 | 51.42819 | -0.31932 | 19739 ft | 341 kts | 358° |
| 2026-04-29 20:53 | 51.45142 | -0.31985 | 19490 ft | 333 kts | 10° |
| 2026-04-29 20:53 | 51.47449 | -0.31437 | 19242 ft | 330 kts | 17° |
| 2026-04-29 20:53 | 51.49597 | -0.30421 | 18882 ft | 322 kts | 26° |
| 2026-04-29 20:54 | 51.53586 | -0.27397 | 18091 ft | 313 kts | 32° |
| 2026-04-29 20:54 | 51.55510 | -0.25806 | 17697 ft | 311 kts | 32° |
| 2026-04-29 20:54 | 51.57425 | -0.24259 | 17299 ft | 309 kts | 31° |
| 2026-04-29 20:55 | 51.59347 | -0.22743 | 16910 ft | 307 kts | 31° |
| 2026-04-29 20:55 | 51.61247 | -0.21271 | 16532 ft | 305 kts | 31° |
| 2026-04-29 20:55 | 51.63182 | -0.19780 | 16125 ft | 304 kts | 31° |
| 2026-04-29 20:55 | 51.65073 | -0.18326 | 15752 ft | 302 kts | 31° |
| 2026-04-29 20:56 | 51.66940 | -0.16888 | 15385 ft | 301 kts | 31° |
| 2026-04-29 20:56 | 51.68839 | -0.15424 | 15271 ft | 300 kts | 31° |
| 2026-04-29 20:56 | 51.70742 | -0.13951 | 15266 ft | 306 kts | 30° |
| 2026-04-29 20:56 | 51.72643 | -0.12471 | 15258 ft | 305 kts | 31° |
| 2026-04-29 20:57 | 51.74494 | -0.10815 | 15264 ft | 303 kts | 37° |
| 2026-04-29 20:57 | 51.76164 | -0.08762 | 15206 ft | 298 kts | 46° |
| 2026-04-29 20:57 | 51.77629 | -0.06467 | 15230 ft | 297 kts | 50° |
| 2026-04-29 20:57 | 51.79046 | -0.04037 | 15216 ft | 296 kts | 51° |
| 2026-04-29 20:58 | 51.80425 | -0.01637 | 15220 ft | 296 kts | 51° |
| 2026-04-29 20:58 | 51.81839 | 0.00802 | 15215 ft | 295 kts | 51° |
| 2026-04-29 20:58 | 51.83257 | 0.03214 | 15225 ft | 296 kts | 50° |
| 2026-04-29 20:58 | 51.84677 | 0.05613 | 15221 ft | 296 kts | 50° |
| 2026-04-29 20:59 | 51.86096 | 0.08006 | 15222 ft | 296 kts | 50° |
| 2026-04-29 20:59 | 51.87529 | 0.10426 | 15222 ft | 297 kts | 50° |
| 2026-04-29 20:59 | 51.88941 | 0.12809 | 15225 ft | 296 kts | 50° |
| 2026-04-29 20:59 | 51.90384 | 0.15235 | 15237 ft | 298 kts | 49° |
| 2026-04-29 21:00 | 51.91888 | 0.17483 | 15231 ft | 299 kts | 43° |
| 2026-04-29 21:00 | 51.93630 | 0.19345 | 15233 ft | 304 kts | 32° |
| 2026-04-29 21:00 | 51.95540 | 0.20845 | 15229 ft | 305 kts | 28° |
| 2026-04-29 21:00 | 51.97486 | 0.22184 | 15053 ft | 304 kts | 27° |
| 2026-04-29 21:01 | 51.99443 | 0.23497 | 14824 ft | 304 kts | 27° |
| 2026-04-29 21:01 | 52.01390 | 0.24825 | 14592 ft | 302 kts | 27° |
| 2026-04-29 21:01 | 52.03303 | 0.26159 | 14351 ft | 300 kts | 28° |
| 2026-04-29 21:01 | 52.05207 | 0.27507 | 14109 ft | 298 kts | 28° |
| 2026-04-29 21:02 | 52.07118 | 0.28788 | 13883 ft | 300 kts | 23° |
| 2026-04-29 21:02 | 52.09203 | 0.29432 | 13618 ft | 308 kts | 2° |
| 2026-04-29 21:02 | 52.11302 | 0.28653 | 13372 ft | 318 kts | 337° |
| 2026-04-29 21:02 | 52.13096 | 0.26534 | 13137 ft | 322 kts | 314° |
| 2026-04-29 21:03 | 52.14459 | 0.23656 | 12906 ft | 322 kts | 306° |
| 2026-04-29 21:03 | 52.15741 | 0.20613 | 12647 ft | 321 kts | 305° |
| 2026-04-29 21:03 | 52.16994 | 0.17624 | 12404 ft | 321 kts | 305° |
| 2026-04-29 21:03 | 52.18252 | 0.14636 | 12152 ft | 320 kts | 306° |
| 2026-04-29 21:04 | 52.19516 | 0.11643 | 11908 ft | 318 kts | 305° |
| 2026-04-29 21:04 | 52.20766 | 0.08687 | 11660 ft | 317 kts | 306° |
| 2026-04-29 21:04 | 52.22021 | 0.05721 | 11424 ft | 317 kts | 305° |
| 2026-04-29 21:04 | 52.23265 | 0.02774 | 11178 ft | 315 kts | 305° |
| 2026-04-29 21:05 | 52.24501 | -0.00160 | 10925 ft | 313 kts | 305° |
| 2026-04-29 21:05 | 52.25721 | -0.03059 | 10677 ft | 307 kts | 305° |
| 2026-04-29 21:05 | 52.26812 | -0.05982 | 10427 ft | 301 kts | 296° |
| 2026-04-29 21:05 | 52.27571 | -0.09167 | 10172 ft | 295 kts | 286° |
| 2026-04-29 21:06 | 52.28108 | -0.12344 | 9899 ft | 287 kts | 283° |
| 2026-04-29 21:06 | 52.28581 | -0.15462 | 9691 ft | 284 kts | 283° |
| 2026-04-29 21:06 | 52.29069 | -0.18574 | 9438 ft | 280 kts | 284° |
| 2026-04-29 21:06 | 52.29578 | -0.21651 | 9187 ft | 280 kts | 285° |
| 2026-04-29 21:07 | 52.30096 | -0.24677 | 8942 ft | 280 kts | 285° |
| 2026-04-29 21:07 | 52.30624 | -0.27732 | 8688 ft | 279 kts | 285° |
| 2026-04-29 21:07 | 52.31158 | -0.30816 | 8440 ft | 279 kts | 285° |
| 2026-04-29 21:07 | 52.31677 | -0.33831 | 8315 ft | 276 kts | 286° |
| 2026-04-29 21:08 | 52.32193 | -0.36834 | 8316 ft | 279 kts | 286° |
| 2026-04-29 21:08 | 52.32719 | -0.39895 | 8319 ft | 277 kts | 286° |
| 2026-04-29 21:08 | 52.33300 | -0.42934 | 8318 ft | 279 kts | 297° |
| 2026-04-29 21:08 | 52.34467 | -0.45339 | 8327 ft | 272 kts | 330° |
| 2026-04-29 21:09 | 52.36176 | -0.46505 | 8335 ft | 262 kts | 358° |
| 2026-04-29 21:09 | 52.37944 | -0.46418 | 8318 ft | 248 kts | 26° |
| 2026-04-29 21:09 | 52.39278 | -0.44920 | 8327 ft | 231 kts | 62° |
| 2026-04-29 21:09 | 52.39719 | -0.42492 | 8334 ft | 222 kts | 98° |
| 2026-04-29 21:10 | 52.39224 | -0.40155 | 8344 ft | 220 kts | 118° |
| 2026-04-29 21:10 | 52.38425 | -0.38001 | 8333 ft | 220 kts | 121° |
| 2026-04-29 21:10 | 52.37599 | -0.35904 | 8332 ft | 220 kts | 121° |
| 2026-04-29 21:10 | 52.36753 | -0.33777 | 8331 ft | 220 kts | 121° |
| 2026-04-29 21:11 | 52.35921 | -0.31684 | 8335 ft | 221 kts | 121° |
| 2026-04-29 21:11 | 52.35087 | -0.29581 | 8333 ft | 220 kts | 121° |
| 2026-04-29 21:11 | 52.34251 | -0.27481 | 8331 ft | 220 kts | 121° |
| 2026-04-29 21:11 | 52.33422 | -0.25407 | 8332 ft | 221 kts | 122° |
| 2026-04-29 21:12 | 52.32283 | -0.23701 | 8324 ft | 229 kts | 153° |
| 2026-04-29 21:12 | 52.30674 | -0.23404 | 8340 ft | 244 kts | 183° |
| 2026-04-29 21:12 | 52.29024 | -0.24074 | 8329 ft | 248 kts | 190° |
| 2026-04-29 21:12 | 52.27388 | -0.24904 | 8328 ft | 247 kts | 191° |
| 2026-04-29 21:13 | 52.25725 | -0.25765 | 8330 ft | 248 kts | 191° |
| 2026-04-29 21:13 | 52.24082 | -0.26622 | 8323 ft | 250 kts | 191° |
| 2026-04-29 21:13 | 52.22438 | -0.27481 | 8316 ft | 249 kts | 191° |
| 2026-04-29 21:13 | 52.20780 | -0.28349 | 8318 ft | 250 kts | 191° |
| 2026-04-29 21:14 | 52.19138 | -0.29209 | 8315 ft | 250 kts | 191° |
| 2026-04-29 21:14 | 52.17478 | -0.30077 | 8313 ft | 249 kts | 191° |
| 2026-04-29 21:14 | 52.15824 | -0.30945 | 8313 ft | 249 kts | 191° |
| 2026-04-29 21:14 | 52.14193 | -0.31800 | 8312 ft | 248 kts | 191° |
| 2026-04-29 21:15 | 52.12561 | -0.32652 | 8315 ft | 249 kts | 191° |
| 2026-04-29 21:15 | 52.10928 | -0.33679 | 8302 ft | 255 kts | 207° |
| 2026-04-29 21:15 | 52.09626 | -0.35715 | 8313 ft | 265 kts | 228° |
| 2026-04-29 21:15 | 52.08561 | -0.38151 | 8300 ft | 266 kts | 231° |
| 2026-04-29 21:16 | 52.07527 | -0.40644 | 8299 ft | 266 kts | 231° |
| 2026-04-29 21:16 | 52.06480 | -0.43181 | 8303 ft | 267 kts | 231° |
| 2026-04-29 21:16 | 52.05460 | -0.45658 | 8302 ft | 267 kts | 231° |
| 2026-04-29 21:16 | 52.04422 | -0.48176 | 8314 ft | 266 kts | 231° |
| 2026-04-29 21:17 | 52.03414 | -0.50628 | 8136 ft | 263 kts | 231° |
| 2026-04-29 21:17 | 52.02393 | -0.53106 | 7751 ft | 266 kts | 231° |
| 2026-04-29 21:17 | 52.01357 | -0.55609 | 7409 ft | 266 kts | 231° |
| 2026-04-29 21:17 | 52.00325 | -0.58099 | 7088 ft | 266 kts | 231° |
| 2026-04-29 21:18 | 51.99305 | -0.60571 | 6773 ft | 265 kts | 231° |
| 2026-04-29 21:18 | 51.98282 | -0.63065 | 6497 ft | 264 kts | 231° |
| 2026-04-29 21:18 | 51.97263 | -0.65563 | 6179 ft | 264 kts | 230° |
| 2026-04-29 21:18 | 51.96231 | -0.67907 | 5927 ft | 258 kts | 224° |
| 2026-04-29 21:19 | 51.95046 | -0.70137 | 5615 ft | 256 kts | 221° |
| 2026-04-29 21:19 | 51.93838 | -0.72305 | 5300 ft | 255 kts | 220° |
| 2026-04-29 21:19 | 51.92646 | -0.74437 | 5034 ft | 252 kts | 220° |
| 2026-04-29 21:19 | 51.91485 | -0.76521 | 4966 ft | 244 kts | 220° |
| 2026-04-29 21:20 | 51.90393 | -0.78512 | 4967 ft | 234 kts | 220° |
| 2026-04-29 21:20 | 51.89303 | -0.80479 | 4970 ft | 232 kts | 215° |
| 2026-04-29 21:20 | 51.87987 | -0.81663 | 4982 ft | 210 kts | 178° |
| 2026-04-29 21:20 | 51.86642 | -0.81269 | 4966 ft | 190 kts | 140° |
| 2026-04-29 21:21 | 51.85869 | -0.79712 | 4900 ft | 175 kts | 113° |
| 2026-04-29 21:21 | 51.85413 | -0.77932 | 4730 ft | 169 kts | 110° |
| 2026-04-29 21:21 | 51.84977 | -0.76167 | 4487 ft | 167 kts | 111° |
| 2026-04-29 21:21 | 51.84547 | -0.74440 | 4302 ft | 162 kts | 110° |
| 2026-04-29 21:22 | 51.84137 | -0.72799 | 4133 ft | 158 kts | 110° |
| 2026-04-29 21:22 | 51.83725 | -0.71157 | 3933 ft | 155 kts | 110° |
| 2026-04-29 21:22 | 51.83328 | -0.69579 | 3749 ft | 153 kts | 110° |
| 2026-04-29 21:22 | 51.82923 | -0.67980 | 3513 ft | 152 kts | 110° |
| 2026-04-29 21:23 | 51.82658 | -0.66360 | 3269 ft | 151 kts | 95° |
| 2026-04-29 21:23 | 51.82723 | -0.64692 | 3126 ft | 146 kts | 84° |
| 2026-04-29 21:23 | 51.82917 | -0.63118 | 3114 ft | 138 kts | 82° |
| 2026-04-29 21:23 | 51.83147 | -0.61616 | 3022 ft | 137 kts | 81° |
| 2026-04-29 21:24 | 51.83392 | -0.60161 | 2975 ft | 130 kts | 81° |
| 2026-04-29 21:24 | 51.83638 | -0.58726 | 2968 ft | 132 kts | 80° |
| 2026-04-29 21:24 | 51.83884 | -0.57349 | 2971 ft | 125 kts | 80° |
| 2026-04-29 21:24 | 51.84121 | -0.55980 | 2861 ft | 128 kts | 81° |
| 2026-04-29 21:25 | 51.84358 | -0.54638 | 2605 ft | 120 kts | 80° |
| 2026-04-29 21:25 | 51.84588 | -0.53323 | 2493 ft | 124 kts | 81° |
| 2026-04-29 21:25 | 51.84819 | -0.52006 | 2287 ft | 121 kts | 81° |
| 2026-04-29 21:25 | 51.85048 | -0.50690 | 2132 ft | 122 kts | 80° |
| 2026-04-29 21:26 | 51.85276 | -0.49389 | 1953 ft | 117 kts | 79° |
| 2026-04-29 21:26 | 51.85496 | -0.48122 | 1799 ft | 118 kts | 79° |
| 2026-04-29 21:26 | 51.85718 | -0.46854 | 1633 ft | 119 kts | 79° |
| 2026-04-29 21:26 | 51.85947 | -0.45539 | 1476 ft | 124 kts | 78° |
| 2026-04-29 21:27 | 51.86182 | -0.44206 | 1302 ft | 125 kts | 77° |
| 2026-04-29 21:27 | 51.86422 | -0.42833 | 1122 ft | 128 kts | 76° |
| 2026-04-29 21:27 | 51.86655 | -0.41465 | 936 ft | 123 kts | 75° |
| 2026-04-29 21:27 | 51.86908 | -0.40093 | 772 ft | 128 kts | 75° |
| 2026-04-29 21:28 | 51.87145 | -0.38686 | 610 ft | 129 kts | 74° |
| 2026-04-29 21:28 | 51.87367 | -0.37383 | 528 ft | 104 kts | 71° |
| 2026-04-29 21:28 | 51.87510 | -0.36580 | 524 ft | 54 kts | 73° |
| 2026-04-29 21:28 | 51.87600 | -0.36061 | 518 ft | 33 kts | 75° |
| 2026-04-29 21:29 | 51.87700 | -0.35930 | 516 ft | 19 kts | 348° |
| 2026-04-29 21:29 | 51.87776 | -0.36023 | 515 ft | 12 kts | 281° |
| 2026-04-29 21:29 | 51.87768 | -0.36152 | 516 ft | 11 kts | 258° |
| 2026-04-29 21:29 | 51.87751 | -0.36268 | 518 ft | 11 kts | 254° |
| 2026-04-29 21:30 | 51.87730 | -0.36389 | 519 ft | 10 kts | 253° |
| 2026-04-29 21:30 | 51.87710 | -0.36499 | 520 ft | 9 kts | 253° |
| 2026-04-29 21:30 | 51.87693 | -0.36599 | 521 ft | 8 kts | 254° |
| 2026-04-29 21:30 | 51.87676 | -0.36699 | 522 ft | 11 kts | 254° |
| 2026-04-29 21:31 | 51.87653 | -0.36835 | 523 ft | 14 kts | 254° |
| 2026-04-29 21:31 | 51.87626 | -0.36992 | 524 ft | 14 kts | 253° |
| 2026-04-29 21:31 | 51.87599 | -0.37144 | 525 ft | 13 kts | 254° |
| 2026-04-29 21:31 | 51.87580 | -0.37294 | 526 ft | 13 kts | 269° |
| 2026-04-29 21:32 | 51.87613 | -0.37427 | 526 ft | 12 kts | 314° |
| 2026-04-29 21:32 | 51.87684 | -0.37527 | 525 ft | 15 kts | 309° |
| 2026-04-29 21:32 | 51.87732 | -0.37678 | 525 ft | 15 kts | 292° |
| 2026-04-29 21:32 | 51.87771 | -0.37821 | 525 ft | 7 kts | 295° |
| 2026-04-29 21:33 | 51.87800 | -0.37912 | 525 ft | 14 kts | 302° |
| 2026-04-29 21:33 | 51.87864 | -0.37996 | 525 ft | 8 kts | 338° |
| 2026-04-29 21:33 | 51.87883 | -0.37983 | 526 ft | 0 kts | 104° |
| 2026-04-29 21:33 | 51.87884 | -0.37956 | 525 ft | 3 kts | 76° |
| 2026-04-29 21:34 | 51.87889 | -0.37928 | 525 ft | 2 kts | 73° |
| 2026-04-29 21:34 | 51.87889 | -0.37924 | 525 ft | 0 kts | 73° |